createdAt,value
2022-08-19T00:01:28.642Z,15.80
2022-08-19T00:03:58.638Z,14.02
2022-08-19T00:06:26.150Z,13.07
2022-08-19T00:08:53.626Z,14.70
2022-08-19T00:11:26.052Z,13.10
2022-08-19T00:13:53.840Z,14.48
2022-08-19T00:16:26.166Z,17.80
2022-08-19T00:18:56.035Z,16.13
2022-08-19T00:21:23.817Z,16.17
2022-08-19T00:23:51.445Z,14.00
2022-08-19T00:26:18.959Z,23.13
2022-08-19T00:28:48.108Z,17.17
2022-08-19T00:31:17.205Z,15.93
2022-08-19T00:33:45.046Z,15.00
2022-08-19T00:36:12.881Z,16.88
2022-08-19T00:38:42.169Z,16.73
2022-08-19T00:41:10.188Z,14.88
2022-08-19T00:43:38.473Z,22.13
2022-08-19T00:46:07.391Z,15.00
2022-08-19T00:48:37.352Z,15.48
2022-08-19T00:51:07.462Z,15.00
2022-08-19T00:53:35.894Z,15.25
2022-08-19T00:56:07.014Z,15.27
2022-08-19T00:58:36.082Z,13.87
2022-08-19T01:01:05.434Z,14.73
2022-08-19T01:03:56.604Z,14.38
2022-08-19T01:06:21.958Z,13.63
2022-08-19T01:08:50.198Z,14.50
2022-08-19T01:11:18.031Z,13.90
2022-08-19T01:13:49.877Z,13.45
2022-08-19T01:16:19.605Z,13.40
2022-08-19T01:18:49.309Z,13.40
2022-08-19T01:21:24.421Z,14.25
2022-08-19T01:23:53.582Z,15.03
2022-08-19T01:26:23.931Z,16.00
2022-08-19T01:28:57.328Z,17.52
2022-08-19T01:31:31.352Z,17.50
2022-08-19T01:34:00.872Z,17.23
2022-08-19T01:36:30.528Z,14.83
2022-08-19T01:39:00.332Z,17.15
2022-08-19T01:41:27.893Z,19.30
2022-08-19T01:44:13.519Z,16.25
2022-08-19T01:46:44.862Z,15.13
2022-08-19T01:49:12.531Z,15.23
2022-08-19T01:51:40.677Z,16.95
2022-08-19T01:54:09.972Z,19.08
2022-08-19T01:56:37.773Z,18.90
2022-08-19T01:59:10.235Z,19.05
2022-08-19T02:01:37.838Z,15.90
2022-08-19T02:04:05.961Z,19.13
2022-08-19T02:06:33.932Z,16.38
2022-08-19T02:09:02.166Z,15.43
2022-08-19T02:11:34.324Z,15.75
2022-08-19T02:14:03.601Z,17.77
2022-08-19T02:16:31.812Z,16.55
2022-08-19T02:19:01.358Z,21.17
2022-08-19T02:21:29.884Z,21.88
2022-08-19T02:23:57.828Z,20.17
2022-08-19T02:26:27.317Z,21.50
2022-08-19T02:28:57.151Z,23.60
2022-08-19T02:31:26.866Z,27.33
2022-08-19T02:33:56.745Z,23.55
2022-08-19T02:36:26.235Z,20.63
2022-08-19T02:38:55.537Z,16.87
2022-08-19T02:41:26.599Z,14.20
2022-08-19T02:44:22.906Z,15.77
2022-08-19T02:46:44.308Z,17.90
2022-08-19T02:49:11.750Z,19.17
2022-08-19T02:51:46.140Z,18.80
2022-08-19T02:54:14.806Z,22.65
2022-08-19T02:56:44.101Z,18.60
2022-08-19T02:59:13.422Z,16.33
2022-08-19T03:01:43.168Z,15.65
2022-08-19T03:04:14.142Z,14.17
2022-08-19T03:06:43.732Z,14.13
2022-08-19T03:09:12.375Z,13.95
2022-08-19T03:11:40.640Z,13.38
2022-08-19T03:14:10.190Z,13.13
2022-08-19T03:16:43.714Z,16.37
2022-08-19T03:19:11.255Z,16.60
2022-08-19T03:21:38.745Z,18.45
2022-08-19T03:24:08.460Z,19.85
2022-08-19T03:26:36.219Z,19.50
2022-08-19T03:29:05.697Z,19.30
2022-08-19T03:31:43.456Z,17.33
2022-08-19T03:34:16.594Z,17.83
2022-08-19T03:36:44.168Z,20.75
2022-08-19T03:39:12.399Z,16.70
2022-08-19T03:41:44.991Z,17.20
2022-08-19T03:44:16.989Z,20.55
2022-08-19T03:46:47.921Z,17.35
2022-08-19T03:49:18.744Z,19.73
2022-08-19T03:51:48.823Z,18.20
2022-08-19T03:54:18.950Z,18.87
2022-08-19T03:56:48.443Z,17.70
2022-08-19T03:59:18.718Z,15.15
2022-08-19T04:01:46.608Z,14.07
2022-08-19T04:04:14.144Z,16.73
2022-08-19T04:06:44.856Z,16.70
2022-08-19T04:09:13.584Z,21.40
2022-08-19T04:11:44.963Z,22.60
2022-08-19T04:14:14.913Z,28.42
2022-08-19T04:16:43.551Z,26.52
2022-08-19T04:19:11.184Z,25.10
2022-08-19T04:21:38.781Z,25.30
2022-08-19T04:24:08.718Z,20.73
2022-08-19T04:26:38.591Z,16.85
2022-08-19T04:29:12.342Z,18.83
2022-08-19T04:31:42.048Z,17.23
2022-08-19T04:34:12.046Z,23.02
2022-08-19T04:36:43.238Z,30.10
2022-08-19T04:39:14.429Z,41.42
2022-08-19T04:41:59.734Z,49.85
2022-08-19T04:44:31.464Z,36.00
2022-08-19T04:47:01.366Z,21.17
2022-08-19T04:49:29.340Z,18.73
2022-08-19T04:51:56.891Z,19.63
2022-08-19T04:54:37.600Z,20.48
2022-08-19T04:57:08.406Z,18.70
2022-08-19T04:59:36.819Z,20.35
2022-08-19T05:02:05.363Z,24.45
2022-08-19T05:04:33.698Z,30.52
2022-08-19T05:07:02.490Z,28.55
2022-08-19T05:09:39.085Z,25.07
2022-08-19T05:12:20.252Z,29.95
2022-08-19T05:14:48.100Z,25.42
2022-08-19T05:17:37.529Z,22.85
2022-08-19T05:20:22.636Z,23.05
2022-08-19T05:22:50.199Z,23.23
2022-08-19T05:25:21.435Z,23.90
2022-08-19T05:27:49.847Z,20.33
2022-08-19T05:30:18.926Z,19.08
2022-08-19T05:33:01.299Z,24.38
2022-08-19T05:35:29.084Z,17.70
2022-08-19T05:38:02.507Z,25.73
2022-08-19T05:40:31.398Z,24.67
2022-08-19T05:42:59.469Z,23.02
2022-08-19T05:45:26.914Z,27.13
2022-08-19T05:47:54.794Z,32.30
2022-08-19T05:50:22.331Z,40.72
2022-08-19T05:52:50.190Z,58.00
2022-08-19T05:55:21.093Z,95.68
2022-08-19T05:57:49.984Z,111.95
2022-08-19T06:00:21.493Z,112.30
2022-08-19T06:02:52.495Z,105.65
2022-08-19T06:05:20.993Z,108.22
2022-08-19T06:07:48.515Z,97.55
2022-08-19T06:10:16.329Z,94.15
2022-08-19T06:12:43.800Z,99.77
2022-08-19T06:15:14.931Z,104.03
2022-08-19T06:17:45.134Z,80.75
2022-08-19T06:20:16.131Z,95.85
2022-08-19T06:22:45.668Z,93.00
2022-08-19T06:25:14.707Z,80.47
2022-08-19T06:28:11.455Z,90.88
2022-08-19T06:30:31.517Z,85.28
2022-08-19T06:32:59.637Z,84.00
2022-08-19T06:35:27.225Z,75.25
2022-08-19T06:37:54.945Z,71.23
2022-08-19T06:40:22.955Z,70.82
2022-08-19T06:42:54.786Z,73.25
2022-08-19T06:45:24.633Z,65.53
2022-08-19T06:47:59.287Z,60.47
2022-08-19T06:50:27.283Z,59.57
2022-08-19T06:52:56.350Z,54.92
2022-08-19T06:55:24.381Z,56.25
2022-08-19T06:57:54.540Z,54.15
2022-08-19T07:00:23.077Z,57.85
2022-08-19T07:02:59.406Z,53.63
2022-08-19T07:05:30.425Z,59.58
2022-08-19T07:08:02.861Z,56.17
2022-08-19T07:10:33.653Z,59.72
2022-08-19T07:13:01.225Z,57.80
2022-08-19T07:15:28.874Z,54.77
2022-08-19T07:17:56.695Z,57.22
2022-08-19T07:20:28.492Z,55.13
2022-08-19T07:22:58.298Z,67.72
2022-08-19T07:25:32.339Z,53.00
2022-08-19T07:28:01.548Z,47.70
2022-08-19T07:30:29.451Z,49.95
2022-08-19T07:32:59.282Z,50.75
2022-08-19T07:35:26.824Z,48.80
2022-08-19T07:37:54.508Z,46.90
2022-08-19T07:40:23.641Z,52.37
2022-08-19T07:42:51.111Z,45.83
2022-08-19T07:45:18.673Z,43.88
2022-08-19T07:47:48.810Z,39.17
2022-08-19T07:50:21.254Z,37.95
2022-08-19T07:52:50.317Z,35.57
2022-08-19T07:55:42.204Z,36.88
2022-08-19T07:58:09.777Z,33.88
2022-08-19T08:00:37.792Z,33.78
2022-08-19T08:03:05.391Z,33.58
2022-08-19T08:05:50.551Z,35.67
2022-08-19T08:08:43.859Z,29.95
2022-08-19T08:11:12.577Z,34.17
2022-08-19T08:13:45.052Z,31.60
2022-08-19T08:16:13.979Z,36.92
2022-08-19T08:18:43.142Z,32.03
2022-08-19T08:21:10.802Z,36.25
2022-08-19T08:23:39.813Z,34.20
2022-08-19T08:26:07.346Z,28.50
2022-08-19T08:28:34.933Z,35.53
2022-08-19T08:31:03.917Z,32.17
2022-08-19T08:33:37.270Z,30.17
2022-08-19T08:36:06.551Z,33.10
2022-08-19T08:38:39.649Z,28.45
2022-08-19T08:41:15.111Z,25.73
2022-08-19T08:43:44.351Z,33.97
2022-08-19T08:46:30.651Z,26.48
2022-08-19T08:49:08.347Z,24.70
2022-08-19T08:54:15.879Z,26.15
2022-08-19T08:56:45.356Z,28.20
2022-08-19T08:59:21.989Z,28.65
2022-08-19T09:01:50.990Z,30.05
2022-08-19T09:04:18.724Z,22.10
2022-08-19T09:06:53.686Z,28.80
2022-08-19T09:09:31.922Z,28.40
2022-08-19T09:12:11.831Z,25.95
2022-08-19T09:14:50.826Z,28.30
2022-08-19T09:17:32.005Z,26.40
2022-08-19T09:20:05.771Z,25.83
2022-08-19T09:22:37.474Z,23.40
2022-08-19T09:25:06.726Z,23.08
2022-08-19T09:27:42.919Z,26.13
2022-08-19T09:30:15.994Z,25.10
2022-08-19T09:32:46.160Z,24.05
2022-08-19T09:35:15.460Z,24.10
2022-08-19T09:37:43.650Z,23.17
2022-08-19T09:40:13.118Z,23.60
2022-08-19T09:42:50.257Z,21.92
2022-08-19T09:45:23.292Z,21.67
2022-08-19T09:47:54.259Z,21.37
2022-08-19T09:50:24.010Z,20.58
2022-08-19T09:52:55.311Z,18.70
2022-08-19T09:55:31.827Z,21.25
2022-08-19T09:58:03.932Z,21.10
2022-08-19T10:00:32.475Z,21.27
2022-08-19T10:03:01.462Z,22.23
2022-08-19T10:05:48.882Z,22.23
2022-08-19T10:08:18.258Z,21.98
2022-08-19T10:10:47.273Z,23.20
2022-08-19T10:13:16.063Z,21.10
2022-08-19T10:15:45.125Z,23.48
2022-08-19T10:18:18.645Z,20.63
2022-08-19T10:20:51.756Z,18.90
2022-08-19T10:23:21.985Z,25.30
2022-08-19T10:25:50.464Z,19.97
2022-08-19T10:28:19.249Z,17.45
2022-08-19T10:30:47.839Z,20.00
2022-08-19T10:33:38.717Z,20.52
2022-08-19T10:36:07.185Z,21.30
2022-08-19T10:38:35.604Z,20.07
2022-08-19T10:41:11.194Z,20.17
2022-08-19T10:43:40.536Z,19.27
2022-08-19T10:46:13.757Z,18.70
2022-08-19T10:48:46.169Z,20.75
2022-08-19T10:51:32.231Z,21.70
2022-08-19T10:54:00.639Z,20.25
2022-08-19T10:56:46.196Z,19.23
2022-08-19T10:59:15.019Z,20.20
2022-08-19T11:01:43.986Z,18.33
2022-08-19T11:04:14.449Z,17.20
2022-08-19T11:06:44.274Z,15.27
2022-08-19T11:09:12.749Z,15.55
2022-08-19T11:11:41.751Z,16.58
2022-08-19T11:14:10.682Z,14.75
2022-08-19T11:16:39.900Z,12.57
2022-08-19T11:19:09.177Z,12.85
2022-08-19T11:21:40.844Z,18.33
2022-08-19T11:24:11.106Z,23.60
2022-08-19T11:26:39.736Z,15.10
2022-08-19T11:29:12.436Z,14.70
2022-08-19T11:31:42.084Z,16.40
2022-08-19T11:34:12.301Z,19.98
2022-08-19T11:36:43.626Z,19.25
2022-08-19T11:39:13.991Z,16.85
2022-08-19T11:41:42.008Z,17.53
2022-08-19T11:44:09.700Z,18.70
2022-08-19T11:46:38.411Z,17.65
2022-08-19T11:49:13.794Z,17.45
2022-08-19T11:51:44.037Z,19.48
2022-08-19T11:54:13.608Z,21.83
2022-08-19T11:56:41.800Z,21.27
2022-08-19T11:59:14.071Z,22.58
2022-08-19T12:01:43.432Z,17.88
2022-08-19T12:04:11.303Z,17.60
2022-08-19T12:06:40.958Z,18.30
2022-08-19T12:09:11.384Z,18.73
2022-08-19T12:11:39.857Z,13.68
2022-08-19T12:14:07.878Z,16.05
2022-08-19T12:16:37.806Z,12.05
2022-08-19T12:19:08.742Z,12.17
2022-08-19T12:21:37.882Z,15.65
2022-08-19T12:24:08.339Z,15.05
2022-08-19T12:26:52.511Z,8.55
2022-08-19T12:29:23.685Z,10.25
2022-08-19T12:31:52.064Z,9.63
2022-08-19T12:34:20.880Z,6.88
2022-08-19T12:36:50.039Z,11.65
2022-08-19T12:39:17.530Z,12.52
2022-08-19T12:41:54.124Z,13.75
2022-08-19T12:44:29.542Z,11.63
2022-08-19T12:46:59.992Z,10.93
2022-08-19T12:49:53.791Z,10.48
2022-08-19T12:52:19.851Z,12.05
2022-08-19T12:54:53.965Z,13.02
2022-08-19T12:57:24.512Z,13.03
2022-08-19T13:00:00.081Z,10.52
2022-08-19T13:02:27.978Z,13.77
2022-08-19T13:04:55.460Z,51.28
2022-08-19T13:07:22.924Z,13.73
2022-08-19T13:09:53.200Z,10.30
2022-08-19T13:12:21.978Z,9.57
2022-08-19T13:14:54.059Z,12.93
2022-08-19T13:17:22.512Z,9.85
2022-08-19T13:19:51.106Z,12.70
2022-08-19T13:22:19.282Z,11.70
2022-08-19T13:24:47.520Z,10.40
2022-08-19T13:27:15.291Z,10.40
2022-08-19T13:30:01.079Z,8.95
2022-08-19T13:32:48.130Z,8.55
2022-08-19T13:35:19.532Z,9.53
2022-08-19T13:37:47.266Z,9.38
2022-08-19T13:40:19.839Z,9.85
2022-08-19T13:42:50.689Z,7.75
2022-08-19T13:45:20.872Z,8.85
2022-08-19T13:47:53.596Z,7.83
2022-08-19T13:50:25.764Z,9.93
2022-08-19T13:52:53.890Z,6.80
2022-08-19T13:55:24.555Z,6.53
2022-08-19T13:57:53.851Z,7.72
2022-08-19T14:00:22.878Z,10.60
2022-08-19T14:02:54.778Z,8.45
2022-08-19T14:05:22.904Z,7.22
2022-08-19T14:07:50.403Z,4.82
2022-08-19T14:10:19.685Z,7.03
2022-08-19T14:12:48.154Z,8.27
2022-08-19T14:15:16.214Z,8.23
2022-08-19T14:17:45.638Z,8.80
2022-08-19T14:20:17.616Z,9.00
2022-08-19T14:22:47.740Z,6.40
2022-08-19T14:25:18.911Z,6.67
2022-08-19T14:27:46.831Z,5.55
2022-08-19T14:30:16.731Z,5.75
2022-08-19T14:32:45.380Z,4.63
2022-08-19T14:35:16.357Z,6.60
2022-08-19T14:37:46.178Z,5.93
2022-08-19T14:40:15.133Z,5.60
2022-08-19T14:42:43.062Z,4.90
2022-08-19T14:45:11.873Z,6.35
2022-08-19T14:47:40.891Z,5.50
2022-08-19T14:50:10.443Z,8.00
2022-08-19T14:52:40.959Z,4.82
2022-08-19T14:55:09.280Z,9.10
2022-08-19T14:57:36.973Z,5.00
2022-08-19T15:00:05.662Z,5.45
2022-08-19T15:02:34.640Z,7.20
2022-08-19T15:05:03.116Z,6.00
2022-08-19T15:07:30.896Z,5.53
2022-08-19T15:10:00.196Z,5.70
2022-08-19T15:12:27.769Z,6.20
2022-08-19T15:14:56.340Z,4.20
2022-08-19T15:17:43.294Z,6.07
2022-08-19T15:20:14.452Z,6.93
2022-08-19T15:22:42.587Z,3.72
2022-08-19T15:25:15.706Z,4.60
2022-08-19T15:27:44.279Z,5.27
2022-08-19T15:30:13.780Z,6.63
2022-08-19T15:32:41.478Z,3.80
2022-08-19T15:35:09.571Z,4.10
2022-08-19T15:37:37.691Z,4.47
2022-08-19T15:40:07.349Z,9.97
2022-08-19T15:42:37.299Z,3.30
2022-08-19T15:45:05.342Z,3.72
2022-08-19T15:47:34.542Z,3.50
2022-08-19T15:50:10.512Z,4.60
2022-08-19T15:52:46.789Z,5.00
2022-08-19T15:55:19.966Z,4.47
2022-08-19T15:58:29.029Z,5.55
2022-08-19T16:01:15.346Z,4.55
2022-08-19T16:04:01.392Z,3.80
2022-08-19T16:06:31.310Z,7.83
2022-08-19T16:09:01.765Z,6.07
2022-08-19T16:11:32.136Z,4.25
2022-08-19T16:14:02.676Z,4.80
2022-08-19T16:16:34.107Z,6.20
2022-08-19T16:19:03.837Z,4.90
2022-08-19T16:21:33.087Z,4.25
2022-08-19T16:24:02.737Z,4.47
2022-08-19T16:26:31.062Z,6.40
2022-08-19T16:29:01.367Z,3.92
2022-08-19T16:31:29.458Z,4.47
2022-08-19T16:33:57.339Z,3.60
2022-08-19T16:36:25.019Z,4.22
2022-08-19T16:38:53.315Z,4.57
2022-08-19T16:41:21.426Z,4.78
2022-08-19T16:43:52.477Z,5.30
2022-08-19T16:46:22.633Z,2.88
2022-08-19T16:48:50.879Z,5.07
2022-08-19T16:51:18.645Z,4.18
2022-08-19T16:53:46.206Z,4.57
2022-08-19T16:56:13.988Z,3.30
2022-08-19T16:58:42.568Z,5.70
2022-08-19T17:01:11.128Z,3.65
2022-08-19T17:03:40.296Z,4.80
2022-08-19T17:06:15.854Z,5.20
2022-08-19T17:08:48.692Z,4.47
2022-08-19T17:11:18.685Z,3.55
2022-08-19T17:13:47.664Z,3.55
2022-08-19T17:16:16.082Z,3.22
2022-08-19T17:18:44.969Z,3.03
2022-08-19T17:21:13.233Z,2.70
2022-08-19T17:23:43.471Z,2.78
2022-08-19T17:26:11.535Z,3.30
2022-08-19T17:28:45.324Z,4.05
2022-08-19T17:31:13.156Z,4.45
2022-08-19T17:33:41.099Z,2.60
2022-08-19T17:36:10.428Z,3.47
2022-08-19T17:38:39.224Z,6.20
2022-08-19T17:41:07.455Z,4.65
2022-08-19T17:43:41.298Z,4.38
2022-08-19T17:46:18.279Z,5.13
2022-08-19T17:48:51.927Z,4.97
2022-08-19T17:51:24.503Z,4.57
2022-08-19T17:53:54.532Z,4.65
2022-08-19T17:56:23.419Z,4.07
2022-08-19T17:58:54.389Z,4.10
2022-08-19T18:01:29.503Z,2.85
2022-08-19T18:04:16.882Z,2.95
2022-08-19T18:06:50.250Z,3.38
2022-08-19T18:09:20.969Z,3.15
2022-08-19T18:11:53.034Z,3.13
2022-08-19T18:14:20.972Z,2.80
2022-08-19T18:16:48.483Z,5.90
2022-08-19T18:19:16.004Z,5.15
2022-08-19T18:21:44.882Z,2.67
2022-08-19T18:24:12.551Z,2.67
2022-08-19T18:26:40.285Z,4.07
2022-08-19T18:29:09.218Z,3.85
2022-08-19T18:31:38.581Z,3.63
2022-08-19T18:34:09.926Z,3.70
2022-08-19T18:36:53.535Z,5.40
2022-08-19T18:39:44.241Z,3.53
2022-08-19T18:42:32.735Z,3.50
2022-08-19T18:45:18.147Z,4.70
2022-08-19T18:48:03.420Z,4.00
2022-08-19T18:50:31.087Z,4.27
2022-08-19T18:52:58.616Z,3.22
2022-08-19T18:55:29.168Z,3.92
2022-08-19T18:57:56.929Z,2.85
2022-08-19T19:00:25.211Z,2.83
2022-08-19T19:02:54.474Z,3.30
2022-08-19T19:05:22.873Z,3.42
2022-08-19T19:07:50.475Z,2.88
2022-08-19T19:10:18.094Z,2.17
2022-08-19T19:12:47.668Z,2.75
2022-08-19T19:15:15.174Z,2.93
2022-08-19T19:17:42.705Z,4.28
2022-08-19T19:20:10.283Z,3.88
2022-08-19T19:22:37.814Z,2.80
2022-08-19T19:25:06.545Z,2.95
2022-08-19T19:27:34.030Z,3.00
2022-08-19T19:30:02.898Z,2.03
2022-08-19T19:32:38.967Z,3.00
2022-08-19T19:35:09.740Z,2.35
2022-08-19T19:37:37.355Z,4.18
2022-08-19T19:40:05.482Z,2.53
2022-08-19T19:42:33.031Z,2.75
2022-08-19T19:45:01.962Z,5.70
2022-08-19T19:47:31.122Z,4.38
2022-08-19T19:50:15.588Z,3.70
2022-08-19T19:52:46.554Z,2.93
2022-08-19T19:55:17.942Z,3.17
2022-08-19T19:57:46.201Z,3.60
2022-08-19T20:00:16.304Z,5.30
2022-08-19T20:02:49.274Z,4.55
2022-08-19T20:05:19.144Z,4.43
2022-08-19T20:08:04.401Z,4.80
2022-08-19T20:10:32.444Z,4.32
2022-08-19T20:13:02.221Z,4.57
2022-08-19T20:15:30.881Z,6.53
2022-08-19T20:18:00.825Z,4.67
2022-08-19T20:20:28.363Z,4.90
2022-08-19T20:22:55.936Z,3.83
2022-08-19T20:25:23.454Z,5.60
2022-08-19T20:27:51.159Z,4.70
2022-08-19T20:30:21.639Z,6.30
2022-08-19T20:32:51.353Z,4.95
2022-08-19T20:35:22.120Z,5.25
2022-08-19T20:37:52.853Z,5.10
2022-08-19T20:40:23.543Z,2.90
2022-08-19T20:42:51.398Z,2.03
2022-08-19T20:45:32.895Z,2.05
2022-08-19T20:48:02.215Z,1.83
2022-08-19T20:50:31.425Z,5.10
2022-08-19T20:52:59.359Z,1.50
2022-08-19T20:55:28.245Z,5.10
2022-08-19T20:57:56.445Z,2.83
2022-08-19T21:00:24.116Z,2.08
2022-08-19T21:02:51.564Z,1.90
2022-08-19T21:05:19.032Z,1.98
2022-08-19T21:07:47.843Z,1.70
2022-08-19T21:10:15.329Z,2.67
2022-08-19T21:12:44.273Z,2.20
2022-08-19T21:15:12.394Z,4.07
2022-08-19T21:17:39.943Z,3.15
2022-08-19T21:20:09.539Z,3.30
2022-08-19T21:22:37.091Z,3.53
2022-08-19T21:25:07.095Z,4.38
2022-08-19T21:27:34.659Z,3.88
2022-08-19T21:30:02.142Z,3.10
2022-08-19T21:32:29.623Z,3.40
2022-08-19T21:34:57.303Z,4.60
2022-08-19T21:37:26.137Z,4.72
2022-08-19T21:39:54.174Z,3.53
2022-08-19T21:42:23.414Z,3.92
2022-08-19T21:44:50.988Z,3.77
2022-08-19T21:47:18.505Z,6.40
2022-08-19T21:49:46.016Z,4.40
2022-08-19T21:52:13.773Z,4.95
2022-08-19T21:54:41.649Z,4.80
2022-08-19T21:57:10.507Z,4.80
2022-08-19T21:59:43.519Z,5.55
2022-08-19T22:02:19.972Z,5.40
2022-08-19T22:04:49.061Z,8.20
2022-08-19T22:07:16.691Z,5.97
2022-08-19T22:09:45.410Z,6.17
2022-08-19T22:12:23.855Z,6.15
2022-08-19T22:14:53.760Z,6.85
2022-08-19T22:17:22.308Z,5.88
2022-08-19T22:19:50.822Z,6.95
2022-08-19T22:22:23.998Z,6.37
2022-08-19T22:24:51.772Z,7.03
2022-08-19T22:27:20.179Z,7.63
2022-08-19T22:29:48.051Z,6.93
2022-08-19T22:32:27.891Z,7.55
2022-08-19T22:34:59.226Z,9.17
2022-08-19T22:37:27.608Z,7.15
2022-08-19T22:39:55.521Z,7.20
2022-08-19T22:42:24.647Z,9.02
2022-08-19T22:44:53.144Z,8.15
2022-08-19T22:47:23.376Z,8.67
2022-08-19T22:49:54.612Z,8.68
2022-08-19T22:52:21.960Z,9.40
2022-08-19T22:54:51.339Z,7.03
2022-08-19T22:57:20.344Z,8.02
2022-08-19T22:59:49.451Z,7.33
2022-08-19T23:02:19.183Z,7.70
2022-08-19T23:04:48.779Z,7.75
2022-08-19T23:07:16.528Z,7.63
2022-08-19T23:09:44.518Z,9.40
2022-08-19T23:12:13.763Z,8.27
2022-08-19T23:14:41.477Z,9.40
2022-08-19T23:17:09.402Z,9.25
2022-08-19T23:19:38.342Z,7.53
2022-08-19T23:22:08.255Z,8.38
2022-08-19T23:24:35.721Z,8.80
2022-08-19T23:27:21.144Z,7.60
2022-08-19T23:30:08.179Z,8.77
2022-08-19T23:32:36.395Z,9.95
2022-08-19T23:35:04.530Z,9.80
2022-08-19T23:37:33.373Z,8.57
2022-08-19T23:40:01.236Z,9.50
2022-08-19T23:42:28.844Z,10.85
2022-08-19T23:45:01.225Z,12.27
2022-08-19T23:47:29.283Z,10.45
2022-08-19T23:49:57.923Z,10.57
2022-08-19T23:52:26.143Z,11.88
2022-08-19T23:54:55.179Z,14.25
2022-08-19T23:57:22.933Z,11.25
2022-08-19T23:59:50.418Z,10.80
